QTR329 OTHH-EGKK
Flight info
| Callsign | QTR329 |
|---|---|
| Flight time | N/A |
| Altitude | 32000 |
| Route | LUBET2A/34L LUBET L934 DAVUS/N0491F380 L602 GADSI M860 OTALO/N0488F400 M860 NINVA UM860 ODALI UL852 NEGEM DCT ARGES DCT BUDOP DCT BERVA DCT PEPIK DCT RAPET DCT MASEK DCT TIVUN DCT BREDA DCT GALSO Q63 ARREK Y4 TEBRA |
| Aircraft | A359/H-SDE2E3GHIJ3J4J5LM1ORWXY/LB1D1 |
Departure
| Time | 2026-05-05 08:06 |
|---|---|
| Airport | Hamad International Airport (OTHH) |
Arrival
| Time | N/A |
|---|---|
| Airport | London Gatwick Airport (EGKK) |
| Time | Latitude | Longitude | Altitude | Speed | Heading |
|---|---|---|---|---|---|
| 2026-05-05 07:47 | 25.26400 | 51.61136 | 28 ft | 0 kts | 72° |
| 2026-05-05 07:57 | 25.26399 | 51.61131 | 28 ft | 3 kts | 72° |
| 2026-05-05 07:58 | 25.26391 | 51.61102 | 28 ft | 4 kts | 72° |
| 2026-05-05 07:58 | 25.26383 | 51.61077 | 26 ft | 2 kts | 72° |
| 2026-05-05 07:58 | 25.26378 | 51.61052 | 25 ft | 4 kts | 96° |
| 2026-05-05 07:58 | 25.26384 | 51.61030 | 25 ft | 4 kts | 134° |
| 2026-05-05 07:59 | 25.26403 | 51.61014 | 27 ft | 4 kts | 158° |
| 2026-05-05 07:59 | 25.26429 | 51.61004 | 26 ft | 4 kts | 160° |
| 2026-05-05 07:59 | 25.26436 | 51.61002 | 26 ft | 5 kts | 158° |
| 2026-05-05 08:02 | 25.26434 | 51.61002 | 26 ft | 2 kts | 158° |
| 2026-05-05 08:02 | 25.26375 | 51.61028 | 25 ft | 16 kts | 158° |
| 2026-05-05 08:02 | 25.26266 | 51.61059 | 28 ft | 14 kts | 189° |
| 2026-05-05 08:03 | 25.26182 | 51.60965 | 28 ft | 20 kts | 259° |
| 2026-05-05 08:03 | 25.26139 | 51.60809 | 28 ft | 19 kts | 248° |
| 2026-05-05 08:03 | 25.26076 | 51.60636 | 28 ft | 29 kts | 248° |
| 2026-05-05 08:03 | 25.25983 | 51.60547 | 29 ft | 10 kts | 163° |
| 2026-05-05 08:04 | 25.25879 | 51.60595 | 29 ft | 22 kts | 158° |
| 2026-05-05 08:04 | 25.25742 | 51.60644 | 28 ft | 15 kts | 190° |
| 2026-05-05 08:04 | 25.25721 | 51.60630 | 28 ft | 0 kts | 219° |
| 2026-05-05 08:05 | 25.25698 | 51.60598 | 28 ft | 10 kts | 241° |
| 2026-05-05 08:05 | 25.25693 | 51.60489 | 28 ft | 18 kts | 301° |
| 2026-05-05 08:05 | 25.25828 | 51.60413 | 30 ft | 32 kts | 338° |
| 2026-05-05 08:06 | 25.26228 | 51.60237 | 30 ft | 93 kts | 338° |
| 2026-05-05 08:06 | 25.27007 | 51.59896 | 28 ft | 146 kts | 338° |
| 2026-05-05 08:06 | 25.28092 | 51.59409 | 168 ft | 180 kts | 336° |
| 2026-05-05 08:06 | 25.29229 | 51.58900 | 903 ft | 173 kts | 338° |
| 2026-05-05 08:07 | 25.30372 | 51.58401 | 1364 ft | 183 kts | 338° |
| 2026-05-05 08:07 | 25.31611 | 51.57849 | 1569 ft | 201 kts | 338° |
| 2026-05-05 08:07 | 25.32964 | 51.57243 | 1845 ft | 215 kts | 338° |
| 2026-05-05 08:07 | 25.34367 | 51.56626 | 2310 ft | 219 kts | 339° |
| 2026-05-05 08:08 | 25.35832 | 51.55983 | 2612 ft | 237 kts | 339° |
| 2026-05-05 08:08 | 25.37433 | 51.55278 | 2888 ft | 256 kts | 338° |
| 2026-05-05 08:08 | 25.39119 | 51.54524 | 3425 ft | 263 kts | 338° |
| 2026-05-05 08:08 | 25.40831 | 51.53769 | 4074 ft | 266 kts | 339° |
| 2026-05-05 08:09 | 25.42543 | 51.53024 | 4714 ft | 269 kts | 339° |
| 2026-05-05 08:09 | 25.44292 | 51.52259 | 5331 ft | 272 kts | 339° |
| 2026-05-05 08:09 | 25.46059 | 51.51476 | 5968 ft | 274 kts | 339° |
| 2026-05-05 08:09 | 25.47867 | 51.50774 | 6554 ft | 276 kts | 348° |
| 2026-05-05 08:10 | 25.49779 | 51.50768 | 7148 ft | 277 kts | 12° |
| 2026-05-05 08:10 | 25.51646 | 51.51322 | 7783 ft | 278 kts | 16° |
| 2026-05-05 08:10 | 25.53504 | 51.51952 | 8433 ft | 280 kts | 16° |
| 2026-05-05 08:10 | 25.55360 | 51.52572 | 9062 ft | 283 kts | 15° |
| 2026-05-05 08:11 | 25.57255 | 51.53194 | 9746 ft | 284 kts | 15° |
| 2026-05-05 08:11 | 25.59167 | 51.53831 | 10279 ft | 292 kts | 15° |
| 2026-05-05 08:11 | 25.61172 | 51.54493 | 10544 ft | 310 kts | 15° |
| 2026-05-05 08:11 | 25.63301 | 51.55190 | 10794 ft | 327 kts | 15° |
| 2026-05-05 08:12 | 25.65575 | 51.55678 | 10991 ft | 341 kts | 359° |
| 2026-05-05 08:12 | 25.67944 | 51.55245 | 11246 ft | 352 kts | 342° |
| 2026-05-05 08:12 | 25.70297 | 51.54393 | 11649 ft | 359 kts | 340° |
| 2026-05-05 08:12 | 25.72676 | 51.53500 | 12202 ft | 362 kts | 340° |
| 2026-05-05 08:13 | 25.75078 | 51.52617 | 12789 ft | 365 kts | 340° |
| 2026-05-05 08:13 | 25.77501 | 51.51730 | 13362 ft | 367 kts | 340° |
| 2026-05-05 08:13 | 25.79942 | 51.50851 | 13900 ft | 370 kts | 340° |
| 2026-05-05 08:13 | 25.82370 | 51.49942 | 14306 ft | 375 kts | 337° |
| 2026-05-05 08:14 | 25.84659 | 51.48556 | 14716 ft | 377 kts | 321° |
| 2026-05-05 08:14 | 25.86498 | 51.46474 | 15170 ft | 379 kts | 308° |